Terminal Aerodrome Forecast
Issued by NWS Sterling, VA

Current Version | Previous Version | Text Only | Print | Product List | Glossary Off
Versions: 1 2 3 4 5 6 7 8 9 10 11 12 13 14 15 16 17 18 19 20 21 22 23

766
FTUS41 KLWX 250522
TAFIAD
TAF
KIAD 250522Z 2506/2612 03009KT 6SM -DZ BR VCSH BKN008 OVC015
     FM250900 03009KT 6SM -DZ BR VCSH BKN003 OVC012
     FM251200 02010G18KT 5SM -RADZ BKN008 OVC015
     FM252100 02008KT 5SM -RA BKN008 OVC015
     FM260300 34006KT 5SM BR BKN008 OVC015=

USA.gov is the U.S. government's official web portal to all federal, state and local government web resources and services.